^^
Cohasset Weather Station Historical Data
 
Daily Summary for August 19, 2018 Units:  English    Metric   Both
Daily Weekly Monthly Yearly Custom
  Current: High: Low: Average:
Temperature: 72.7 °F 94.5 °F 63.3 °F 75.1 °F
Dew Point: 47.6 °F 57.5 °F 44.3 °F 48 °F
Humidity: 41% 66% 21% 41%
Wind Speed: 0mph 0mph 0mph 0mph
Wind Gust: 0mph 0mph - -
WindCalm - - North
Pressure: 29.99 in 30.11 in 29.98 in -
Precipitation: 0 in      
Historical Graphs
 
 
Tabular Data for August 19, 2018
Time Temperature Dew Point Pressure Wind Wind Speed Wind Gust Humidity Rainfall Rate (Hourly) solar
00:04 67.8 °F 45.7 °F 30.11 in Calm     45% 0 in WeatherDisplay:10.37 W/m2
00:09 67.6 °F 45.5 °F 30.11 in Calm     45% 0 in WeatherDisplay:10.37 W/m2
00:14 67.5 °F 45.4 °F 30.11 in Calm     45% 0 in WeatherDisplay:10.37 W/m2
00:19 67.5 °F 46 °F 30.11 in Calm     46% 0 in WeatherDisplay:10.37 W/m2
00:24 67.3 °F 45.8 °F 30.11 in Calm     46% 0 in WeatherDisplay:10.37 W/m2
00:29 67.1 °F 45.6 °F 30.11 in Calm     46% 0 in WeatherDisplay:10.37 W/m2
00:34 66.9 °F 45.4 °F 30.11 in Calm     46% 0 in WeatherDisplay:10.37 W/m2
00:39 66.9 °F 46 °F 30.11 in Calm     47% 0 in WeatherDisplay:10.37 W/m2
00:44 66.7 °F 45.8 °F 30.11 in Calm     47% 0 in WeatherDisplay:10.37 W/m2
00:49 66.6 °F 45.7 °F 30.11 in Calm     47% 0 in WeatherDisplay:10.37 W/m2
00:54 66.6 °F 45.7 °F 30.11 in Calm     47% 0 in WeatherDisplay:10.37 W/m2
00:59 66.4 °F 45.5 °F 30.11 in Calm     47% 0 in WeatherDisplay:10.37 W/m2
01:04 66.4 °F 45.5 °F 30.11 in Calm     47% 0 in WeatherDisplay:10.37 W/m2
01:09 66.4 °F 45.5 °F 30.11 in Calm     47% 0 in WeatherDisplay:10.37 W/m2
01:14 66.2 °F 45.4 °F 30.11 in Calm     47% 0 in WeatherDisplay:10.37 W/m2
01:19 66.2 °F 45.4 °F 30.10 in Calm     47% 0 in WeatherDisplay:10.37 W/m2
01:24 66 °F 45.2 °F 30.10 in Calm     47% 0 in WeatherDisplay:10.37 W/m2
01:29 66 °F 45.2 °F 30.10 in Calm     47% 0 in WeatherDisplay:10.37 W/m2
01:34 66 °F 45.2 °F 30.10 in Calm     47% 0 in WeatherDisplay:10.37 W/m2
01:39 65.8 °F 45 °F 30.10 in Calm     47% 0 in WeatherDisplay:10.37 W/m2
01:44 65.8 °F 45 °F 30.10 in Calm     47% 0 in WeatherDisplay:10.37 W/m2
01:49 65.7 °F 44.9 °F 30.10 in Calm     47% 0 in WeatherDisplay:10.37 W/m2
01:54 65.7 °F 44.9 °F 30.10 in Calm     47% 0 in WeatherDisplay:10.37 W/m2
01:59 65.7 °F 44.9 °F 30.10 in Calm     47% 0 in WeatherDisplay:10.37 W/m2
02:04 65.5 °F 44.7 °F 30.09 in Calm     47% 0 in WeatherDisplay:10.37 W/m2
02:09 65.5 °F 44.7 °F 30.09 in Calm     47% 0 in WeatherDisplay:10.37 W/m2
02:14 65.5 °F 44.7 °F 30.09 in Calm     47% 0 in WeatherDisplay:10.37 W/m2
02:19 65.3 °F 44.5 °F 30.09 in Calm     47% 0 in WeatherDisplay:10.37 W/m2
02:24 65.3 °F 44.5 °F 30.09 in Calm     47% 0 in WeatherDisplay:10.37 W/m2
02:29 65.3 °F 44.5 °F 30.09 in Calm     47% 0 in WeatherDisplay:10.37 W/m2
02:34 65.3 °F 44.5 °F 30.09 in Calm     47% 0 in WeatherDisplay:10.37 W/m2
02:39 65.1 °F 44.4 °F 30.09 in Calm     47% 0 in WeatherDisplay:10.37 W/m2
02:44 65.1 °F 44.4 °F 30.09 in Calm     47% 0 in WeatherDisplay:10.37 W/m2
02:49 65.1 °F 44.4 °F 30.09 in Calm     47% 0 in WeatherDisplay:10.37 W/m2
02:54 65.1 °F 44.4 °F 30.09 in Calm     47% 0 in WeatherDisplay:10.37 W/m2
02:59 64.9 °F 44.7 °F 30.09 in Calm     48% 0 in WeatherDisplay:10.37 W/m2
03:04 64.9 °F 44.7 °F 30.09 in Calm     48% 0 in WeatherDisplay:10.37 W/m2
03:09 64.9 °F 44.7 °F 30.09 in Calm     48% 0 in WeatherDisplay:10.37 W/m2
03:14 64.9 °F 44.7 °F 30.09 in Calm     48% 0 in WeatherDisplay:10.37 W/m2
03:19 64.8 °F 44.6 °F 30.09 in Calm     48% 0 in WeatherDisplay:10.37 W/m2
03:24 64.8 °F 44.6 °F 30.09 in Calm     48% 0 in WeatherDisplay:10.37 W/m2
03:29 64.8 °F 44.6 °F 30.09 in Calm     48% 0 in WeatherDisplay:10.37 W/m2
03:34 64.8 °F 44.6 °F 30.09 in Calm     48% 0 in WeatherDisplay:10.37 W/m2
03:39 64.8 °F 44.6 °F 30.09 in Calm     48% 0 in WeatherDisplay:10.37 W/m2
03:44 64.6 °F 44.5 °F 30.09 in Calm     48% 0 in WeatherDisplay:10.37 W/m2
03:49 64.6 °F 44.5 °F 30.09 in Calm     48% 0 in WeatherDisplay:10.37 W/m2
03:54 64.4 °F 44.3 °F 30.08 in Calm     48% 0 in WeatherDisplay:10.37 W/m2
03:59 64.4 °F 44.3 °F 30.08 in Calm     48% 0 in WeatherDisplay:10.37 W/m2
04:04 64.4 °F 44.8 °F 30.09 in Calm     49% 0 in WeatherDisplay:10.37 W/m2
04:09 64.4 °F 44.8 °F 30.09 in Calm     49% 0 in WeatherDisplay:10.37 W/m2
04:14 64.4 °F 44.8 °F 30.09 in Calm     49% 0 in WeatherDisplay:10.37 W/m2
04:19 64.2 °F 44.6 °F 30.09 in Calm     49% 0 in WeatherDisplay:10.37 W/m2
04:24 64.2 °F 44.6 °F 30.09 in Calm     49% 0 in WeatherDisplay:10.37 W/m2
04:29 64.2 °F 44.6 °F 30.09 in Calm     49% 0 in WeatherDisplay:10.37 W/m2
04:34 64 °F 44.4 °F 30.09 in Calm     49% 0 in WeatherDisplay:10.37 W/m2
04:39 64 °F 44.4 °F 30.09 in Calm     49% 0 in WeatherDisplay:10.37 W/m2
04:44 64 °F 44.4 °F 30.08 in Calm     49% 0 in WeatherDisplay:10.37 W/m2
04:49 63.9 °F 44.4 °F 30.08 in Calm     49% 0 in WeatherDisplay:10.37 W/m2
04:54 63.9 °F 44.9 °F 30.09 in Calm     50% 0 in WeatherDisplay:10.37 W/m2
04:59 63.9 °F 44.9 °F 30.09 in Calm     50% 0 in WeatherDisplay:10.37 W/m2
05:04 63.9 °F 44.9 °F 30.08 in Calm     50% 0 in WeatherDisplay:10.37 W/m2
05:09 63.7 °F 44.7 °F 30.08 in Calm     50% 0 in WeatherDisplay:10.37 W/m2
05:14 63.7 °F 44.7 °F 30.08 in Calm     50% 0 in WeatherDisplay:10.37 W/m2
05:19 63.5 °F 44.5 °F 30.09 in Calm     50% 0 in WeatherDisplay:10.37 W/m2
05:24 63.5 °F 44.5 °F 30.09 in Calm     50% 0 in WeatherDisplay:10.37 W/m2
05:29 63.3 °F 44.3 °F 30.08 in Calm     50% 0 in WeatherDisplay:10.37 W/m2
05:34 63.3 °F 44.3 °F 30.08 in Calm     50% 0 in WeatherDisplay:10.37 W/m2
05:39 63.3 °F 44.3 °F 30.08 in Calm     50% 0 in WeatherDisplay:10.37 W/m2
05:44 63.3 °F 44.3 °F 30.08 in Calm     50% 0 in WeatherDisplay:10.37 W/m2
05:49 63.3 °F 44.3 °F 30.08 in Calm     50% 0 in WeatherDisplay:10.37 W/m2
05:54 63.3 °F 44.3 °F 30.08 in Calm     50% 0 in WeatherDisplay:10.37 W/m2
05:59 63.3 °F 44.3 °F 30.08 in Calm     50% 0 in WeatherDisplay:10.37 W/m2
06:04 63.3 °F 44.3 °F 30.07 in Calm     50% 0 in WeatherDisplay:10.37 W/m2
06:09 63.3 °F 44.3 °F 30.07 in Calm     50% 0 in WeatherDisplay:10.37 W/m2
06:14 63.3 °F 44.3 °F 30.07 in Calm     50% 0 in WeatherDisplay:10.37 W/m2
06:19 63.3 °F 44.3 °F 30.08 in Calm     50% 0 in WeatherDisplay:10.37 W/m2
06:24 63.3 °F 44.3 °F 30.08 in Calm     50% 0 in WeatherDisplay:10.37 W/m2
06:29 63.3 °F 44.3 °F 30.08 in Calm     50% 0 in WeatherDisplay:10.37 W/m2
06:34 63.3 °F 44.3 °F 30.08 in Calm     50% 0 in WeatherDisplay:10.37 W/m2
06:39 63.3 °F 44.3 °F 30.09 in Calm     50% 0 in WeatherDisplay:10.37 W/m2
06:44 63.3 °F 44.3 °F 30.09 in Calm     50% 0 in WeatherDisplay:10.37 W/m2
06:49 63.3 °F 44.3 °F 30.09 in Calm     50% 0 in WeatherDisplay:10.37 W/m2
06:54 63.3 °F 44.3 °F 30.09 in Calm     50% 0 in WeatherDisplay:10.37 W/m2
06:59 63.3 °F 44.3 °F 30.09 in Calm     50% 0 in WeatherDisplay:10.37 W/m2
07:04 63.5 °F 45 °F 30.09 in Calm     51% 0 in WeatherDisplay:10.37 W/m2
07:09 63.5 °F 45 °F 30.09 in Calm     51% 0 in WeatherDisplay:10.37 W/m2
07:14 63.7 °F 45.7 °F 30.09 in Calm     52% 0 in WeatherDisplay:10.37 W/m2
07:19 63.7 °F 46.2 °F 30.09 in Calm     53% 0 in WeatherDisplay:10.37 W/m2
07:24 63.9 °F 46.4 °F 30.09 in Calm     53% 0 in WeatherDisplay:10.37 W/m2
07:29 63.9 °F 46.9 °F 30.09 in Calm     54% 0 in WeatherDisplay:10.37 W/m2
07:34 63.9 °F 47.4 °F 30.09 in Calm     55% 0 in WeatherDisplay:10.37 W/m2
07:39 63.9 °F 47.4 °F 30.09 in Calm     55% 0 in WeatherDisplay:10.37 W/m2
07:44 63.9 °F 47.9 °F 30.09 in Calm     56% 0 in WeatherDisplay:10.37 W/m2
07:49 64 °F 48.5 °F 30.09 in Calm     57% 0 in WeatherDisplay:10.37 W/m2
07:54 64 °F 48.9 °F 30.09 in Calm     58% 0 in WeatherDisplay:10.37 W/m2
07:59 64 °F 49.4 °F 30.09 in Calm     59% 0 in WeatherDisplay:10.37 W/m2
08:04 64.2 °F 50 °F 30.08 in Calm     60% 0 in WeatherDisplay:10.37 W/m2
08:09 64.4 °F 50.7 °F 30.08 in Calm     61% 0 in WeatherDisplay:10.37 W/m2
08:14 64.6 °F 51.3 °F 30.08 in Calm     62% 0 in WeatherDisplay:10.37 W/m2
08:19 64.8 °F 51.9 °F 30.09 in Calm     63% 0 in WeatherDisplay:10.37 W/m2
08:24 64.9 °F 52 °F 30.09 in Calm     63% 0 in WeatherDisplay:10.37 W/m2
08:29 65.1 °F 52.2 °F 30.09 in Calm     63% 0 in WeatherDisplay:10.37 W/m2
08:34 65.5 °F 52.6 °F 30.09 in Calm     63% 0 in WeatherDisplay:10.37 W/m2
08:39 65.7 °F 52.8 °F 30.08 in Calm     63% 0 in WeatherDisplay:10.37 W/m2
08:44 66 °F 53 °F 30.08 in Calm     63% 0 in WeatherDisplay:10.37 W/m2
08:49 66.4 °F 53.4 °F 30.08 in Calm     63% 0 in WeatherDisplay:10.37 W/m2
08:54 66.7 °F 53.3 °F 30.09 in Calm     62% 0 in WeatherDisplay:10.37 W/m2
08:59 67.1 °F 53.6 °F 30.09 in Calm     62% 0 in WeatherDisplay:10.37 W/m2
09:04 67.1 °F 53.6 °F 30.09 in Calm     62% 0 in WeatherDisplay:10.37 W/m2
09:09 68 °F 54.9 °F 30.09 in Calm     63% 0 in WeatherDisplay:10.37 W/m2
09:14 68.4 °F 55.7 °F 30.09 in Calm     64% 0 in WeatherDisplay:10.37 W/m2
09:19 68.9 °F 55.8 °F 30.08 in Calm     63% 0 in WeatherDisplay:10.37 W/m2
09:24 69.4 °F 57.5 °F 30.08 in Calm     66% 0 in WeatherDisplay:10.37 W/m2
09:29 71.6 °F 54.6 °F 30.09 in Calm     55% 0 in WeatherDisplay:10.37 W/m2
09:34 71.6 °F 54.6 °F 30.09 in Calm     55% 0 in WeatherDisplay:10.37 W/m2
09:39 71.1 °F 52.6 °F 30.09 in Calm     52% 0 in WeatherDisplay:10.37 W/m2
09:44 71.1 °F 52.6 °F 30.09 in Calm     52% 0 in WeatherDisplay:10.37 W/m2
09:49 72.1 °F 55.5 °F 30.09 in Calm     56% 0 in WeatherDisplay:10.37 W/m2
09:54 72.5 °F 54.9 °F 30.08 in Calm     54% 0 in WeatherDisplay:10.37 W/m2
09:59 72.5 °F 54.9 °F 30.08 in Calm     54% 0 in WeatherDisplay:10.37 W/m2
10:04 73.2 °F 51.8 °F 30.09 in Calm     47% 0 in WeatherDisplay:10.37 W/m2
10:09 73.6 °F 52.1 °F 30.09 in Calm     47% 0 in WeatherDisplay:10.37 W/m2
10:14 73.6 °F 52.1 °F 30.09 in Calm     47% 0 in WeatherDisplay:10.37 W/m2
10:19 73.6 °F 52.1 °F 30.09 in Calm     47% 0 in WeatherDisplay:10.37 W/m2
10:24 73.6 °F 52.1 °F 30.09 in Calm     47% 0 in WeatherDisplay:10.37 W/m2
10:29 73.6 °F 52.1 °F 30.09 in Calm     47% 0 in WeatherDisplay:10.37 W/m2
10:34 79.9 °F 49 °F 30.09 in Calm     34% 0 in WeatherDisplay:10.37 W/m2
10:39 80.8 °F 50.6 °F 30.09 in Calm     35% 0 in WeatherDisplay:10.37 W/m2
10:44 81.7 °F 48.1 °F 30.08 in Calm     31% 0 in WeatherDisplay:10.37 W/m2
10:49 81.9 °F 48.3 °F 30.08 in Calm     31% 0 in WeatherDisplay:10.37 W/m2
10:54 82.2 °F 47.7 °F 30.08 in Calm     30% 0 in WeatherDisplay:10.37 W/m2
10:59 82.8 °F 49.1 °F 30.08 in Calm     31% 0 in WeatherDisplay:10.37 W/m2
11:04 83.1 °F 49.3 °F 30.08 in Calm     31% 0 in WeatherDisplay:10.37 W/m2
11:09 83.5 °F 49.7 °F 30.08 in Calm     31% 0 in WeatherDisplay:10.37 W/m2
11:14 83.1 °F 51.8 °F 30.08 in Calm     34% 0 in WeatherDisplay:10.37 W/m2
11:19 84.4 °F 49.6 °F 30.08 in Calm     30% 0 in WeatherDisplay:10.37 W/m2
11:24 83.8 °F 48.1 °F 30.08 in Calm     29% 0 in WeatherDisplay:10.37 W/m2
11:29 84.4 °F 47.7 °F 30.08 in Calm     28% 0 in WeatherDisplay:10.37 W/m2
11:34 84.7 °F 48 °F 30.08 in Calm     28% 0 in WeatherDisplay:10.37 W/m2
11:39 84.7 °F 48 °F 30.08 in Calm     28% 0 in WeatherDisplay:10.37 W/m2
11:44 85.3 °F 49.4 °F 30.07 in Calm     29% 0 in WeatherDisplay:10.37 W/m2
11:49 84.9 °F 48.2 °F 30.07 in Calm     28% 0 in WeatherDisplay:10.37 W/m2
11:54 85.1 °F 47.4 °F 30.07 in Calm     27% 0 in WeatherDisplay:10.37 W/m2
11:59 85.1 °F 47.4 °F 30.07 in Calm     27% 0 in WeatherDisplay:10.37 W/m2
12:04 84.7 °F 48.9 °F 30.07 in Calm     29% 0 in WeatherDisplay:10.37 W/m2
12:09 84.9 °F 49.1 °F 30.07 in Calm     29% 0 in WeatherDisplay:10.37 W/m2
12:14 85.1 °F 49.3 °F 30.07 in Calm     29% 0 in WeatherDisplay:10.37 W/m2
12:19 84.9 °F 48.2 °F 30.07 in Calm     28% 0 in WeatherDisplay:10.37 W/m2
12:24 84.6 °F 49.7 °F 30.07 in Calm     30% 0 in WeatherDisplay:10.37 W/m2
12:29 84.9 °F 49.1 °F 30.06 in Calm     29% 0 in WeatherDisplay:10.37 W/m2
12:34 84.9 °F 49.1 °F 30.06 in Calm     29% 0 in WeatherDisplay:10.37 W/m2
12:39 85.1 °F 48.3 °F 30.06 in Calm     28% 0 in WeatherDisplay:10.37 W/m2
12:44 84.7 °F 48 °F 30.06 in Calm     28% 0 in WeatherDisplay:10.37 W/m2
12:49 85.3 °F 48.5 °F 30.06 in Calm     28% 0 in WeatherDisplay:10.37 W/m2
12:54 84.9 °F 47.2 °F 30.06 in Calm     27% 0 in WeatherDisplay:10.37 W/m2
12:59 85.6 °F 47.8 °F 30.06 in Calm     27% 0 in WeatherDisplay:10.37 W/m2
13:04 85.5 °F 47.7 °F 30.06 in Calm     27% 0 in WeatherDisplay:10.37 W/m2
13:09 85.8 °F 46.9 °F 30.06 in Calm     26% 0 in WeatherDisplay:10.37 W/m2
13:14 87.1 °F 47 °F 30.06 in Calm     25% 0 in WeatherDisplay:10.37 W/m2
13:19 88 °F 47.8 °F 30.06 in Calm     25% 0 in WeatherDisplay:10.37 W/m2
13:24 89.1 °F 48.7 °F 30.06 in Calm     25% 0 in WeatherDisplay:10.37 W/m2
13:29 89.2 °F 47.7 °F 30.05 in Calm     24% 0 in WeatherDisplay:10.37 W/m2
13:34 89.4 °F 46.7 °F 30.05 in Calm     23% 0 in WeatherDisplay:10.37 W/m2
13:39 90.3 °F 47.5 °F 30.05 in Calm     23% 0 in WeatherDisplay:10.37 W/m2
13:44 89.4 °F 46.7 °F 30.05 in Calm     23% 0 in WeatherDisplay:10.37 W/m2
13:49 92.1 °F 47.8 °F 30.05 in Calm     22% 0 in WeatherDisplay:10.37 W/m2
13:54 94.5 °F 48.5 °F 30.05 in Calm     21% 0 in WeatherDisplay:10.37 W/m2
13:59 91.8 °F 47.5 °F 30.05 in Calm     22% 0 in WeatherDisplay:10.37 W/m2
14:04 92.5 °F 46.9 °F 30.05 in Calm     21% 0 in WeatherDisplay:10.37 W/m2
14:09 93 °F 47.3 °F 30.05 in Calm     21% 0 in WeatherDisplay:10.37 W/m2
14:14 91.9 °F 46.4 °F 30.05 in Calm     21% 0 in WeatherDisplay:10.37 W/m2
14:19 92.5 °F 49.3 °F 30.05 in Calm     23% 0 in WeatherDisplay:10.37 W/m2
14:24 93.6 °F 49 °F 30.05 in Calm     22% 0 in WeatherDisplay:10.37 W/m2
14:29 91.9 °F 50 °F 30.04 in Calm     24% 0 in WeatherDisplay:10.37 W/m2
14:34 93.2 °F 48.7 °F 30.04 in Calm     22% 0 in WeatherDisplay:10.37 W/m2
14:39 91.8 °F 47.5 °F 30.04 in Calm     22% 0 in WeatherDisplay:10.37 W/m2
14:44 92.5 °F 49.3 °F 30.04 in Calm     23% 0 in WeatherDisplay:10.37 W/m2
14:49 92.5 °F 50.5 °F 30.04 in Calm     24% 0 in WeatherDisplay:10.37 W/m2
14:54 91.8 °F 48.7 °F 30.04 in Calm     23% 0 in WeatherDisplay:10.37 W/m2
14:59 91.4 °F 49.5 °F 30.04 in Calm     24% 0 in WeatherDisplay:10.37 W/m2
15:04 91.8 °F 49.9 °F 30.03 in Calm     24% 0 in WeatherDisplay:10.37 W/m2
15:09 91.4 °F 50.6 °F 30.03 in Calm     25% 0 in WeatherDisplay:10.37 W/m2
15:14 91.8 °F 51 °F 30.03 in Calm     25% 0 in WeatherDisplay:10.37 W/m2
15:19 91 °F 49.2 °F 30.02 in Calm     24% 0 in WeatherDisplay:10.37 W/m2
15:24 91.4 °F 49.5 °F 30.02 in Calm     24% 0 in WeatherDisplay:10.37 W/m2
15:29 90.5 °F 49.9 °F 30.02 in Calm     25% 0 in WeatherDisplay:10.37 W/m2
15:34 90.3 °F 49.7 °F 30.02 in Calm     25% 0 in WeatherDisplay:10.37 W/m2
15:39 91.2 °F 49.4 °F 30.02 in Calm     24% 0 in WeatherDisplay:10.37 W/m2
15:44 90.9 °F 49.1 °F 30.02 in Calm     24% 0 in WeatherDisplay:10.37 W/m2
15:49 89.8 °F 48.2 °F 30.02 in Calm     24% 0 in WeatherDisplay:10.37 W/m2
15:54 89.1 °F 49.7 °F 30.01 in Calm     26% 0 in WeatherDisplay:10.37 W/m2
15:59 88.2 °F 47.9 °F 30.01 in Calm     25% 0 in WeatherDisplay:10.37 W/m2
16:04 89.8 °F 47.1 °F 30.01 in Calm     23% 0 in WeatherDisplay:10.37 W/m2
16:09 88.3 °F 46.9 °F 30.01 in Calm     24% 0 in WeatherDisplay:10.37 W/m2
16:14 88.9 °F 46.3 °F 30.01 in Calm     23% 0 in WeatherDisplay:10.37 W/m2
16:19 87.4 °F 46.2 °F 30.00 in Calm     24% 0 in WeatherDisplay:10.37 W/m2
16:24 87.6 °F 45.2 °F 30.00 in Calm     23% 0 in WeatherDisplay:10.37 W/m2
16:29 88.2 °F 45.7 °F 30.00 in Calm     23% 0 in WeatherDisplay:10.37 W/m2
16:34 86.7 °F 46.7 °F 30.00 in Calm     25% 0 in WeatherDisplay:10.37 W/m2
16:39 88.2 °F 45.7 °F 30.00 in Calm     23% 0 in WeatherDisplay:10.37 W/m2
16:44 88.7 °F 48.4 °F 30.00 in Calm     25% 0 in WeatherDisplay:10.37 W/m2
16:49 88.5 °F 48.2 °F 30.00 in Calm     25% 0 in WeatherDisplay:10.37 W/m2
16:54 88.3 °F 45.8 °F 30.00 in Calm     23% 0 in WeatherDisplay:10.37 W/m2
16:59 88.3 °F 48 °F 30.00 in Calm     25% 0 in WeatherDisplay:10.37 W/m2
17:04 88.2 °F 46.8 °F 29.99 in Calm     24% 0 in WeatherDisplay:10.37 W/m2
17:09 88 °F 48.8 °F 29.99 in Calm     26% 0 in WeatherDisplay:10.37 W/m2
17:14 87.4 °F 47.3 °F 29.99 in Calm     25% 0 in WeatherDisplay:10.37 W/m2
17:19 86.9 °F 47.9 °F 29.99 in Calm     26% 0 in WeatherDisplay:10.37 W/m2
17:24 86.7 °F 48.7 °F 29.99 in Calm     27% 0 in WeatherDisplay:10.37 W/m2
17:29 86.4 °F 49.4 °F 29.99 in Calm     28% 0 in WeatherDisplay:10.37 W/m2
17:34 85.6 °F 50.6 °F 29.99 in Calm     30% 0 in WeatherDisplay:10.37 W/m2
17:39 85.1 °F 50.2 °F 29.99 in Calm     30% 0 in WeatherDisplay:10.37 W/m2
17:44 85.1 °F 50.2 °F 29.99 in Calm     30% 0 in WeatherDisplay:10.37 W/m2
17:49 84.9 °F 50 °F 29.99 in Calm     30% 0 in WeatherDisplay:10.37 W/m2
17:54 84.4 °F 50.5 °F 29.99 in Calm     31% 0 in WeatherDisplay:10.37 W/m2
17:59 84 °F 51 °F 29.99 in Calm     32% 0 in WeatherDisplay:10.37 W/m2
18:04 83.5 °F 52.2 °F 29.99 in Calm     34% 0 in WeatherDisplay:10.37 W/m2
18:09 82.9 °F 51.6 °F 29.99 in Calm     34% 0 in WeatherDisplay:10.37 W/m2
18:14 82.2 °F 51 °F 29.99 in Calm     34% 0 in WeatherDisplay:10.37 W/m2
18:19 81.5 °F 51.2 °F 29.99 in Calm     35% 0 in WeatherDisplay:10.37 W/m2
18:24 81.1 °F 50.9 °F 29.99 in Calm     35% 0 in WeatherDisplay:10.37 W/m2
18:29 80.4 °F 51 °F 29.99 in Calm     36% 0 in WeatherDisplay:10.37 W/m2
18:34 80.1 °F 51.5 °F 29.99 in Calm     37% 0 in WeatherDisplay:10.37 W/m2
18:39 79.5 °F 51.7 °F 29.99 in Calm     38% 0 in WeatherDisplay:10.37 W/m2
18:44 79.2 °F 51.4 °F 29.98 in Calm     38% 0 in WeatherDisplay:10.37 W/m2
18:49 78.8 °F 51.7 °F 29.98 in Calm     39% 0 in WeatherDisplay:10.37 W/m2
18:54 78.6 °F 52.3 °F 29.98 in Calm     40% 0 in WeatherDisplay:10.37 W/m2
18:59 78.1 °F 52.5 °F 29.98 in Calm     41% 0 in WeatherDisplay:10.37 W/m2
19:04 77.7 °F 52.1 °F 29.98 in Calm     41% 0 in WeatherDisplay:10.37 W/m2
19:09 77.4 °F 51.9 °F 29.98 in Calm     41% 0 in WeatherDisplay:10.37 W/m2
19:14 77 °F 51.5 °F 29.98 in Calm     41% 0 in WeatherDisplay:10.37 W/m2
19:19 76.6 °F 51.1 °F 29.98 in Calm     41% 0 in WeatherDisplay:10.37 W/m2
19:24 76.3 °F 50.9 °F 29.98 in Calm     41% 0 in WeatherDisplay:10.37 W/m2
19:29 75.9 °F 50.5 °F 29.98 in Calm     41% 0 in WeatherDisplay:10.37 W/m2
19:34 75.6 °F 50.2 °F 29.98 in Calm     41% 0 in WeatherDisplay:10.37 W/m2
19:39 75.2 °F 50.5 °F 29.98 in Calm     42% 0 in WeatherDisplay:10.37 W/m2
19:44 74.8 °F 50.2 °F 29.98 in Calm     42% 0 in WeatherDisplay:10.37 W/m2
19:49 74.7 °F 50.1 °F 29.98 in Calm     42% 0 in WeatherDisplay:10.37 W/m2
19:54 74.3 °F 49.1 °F 29.98 in Calm     41% 0 in WeatherDisplay:10.37 W/m2
19:59 74.1 °F 48.9 °F 29.98 in Calm     41% 0 in WeatherDisplay:10.37 W/m2
20:04 73.9 °F 48.7 °F 29.98 in Calm     41% 0 in WeatherDisplay:10.37 W/m2
20:09 73.8 °F 48.6 °F 29.98 in Calm     41% 0 in WeatherDisplay:10.37 W/m2
20:14 73.6 °F 48.4 °F 29.98 in Calm     41% 0 in WeatherDisplay:10.37 W/m2
20:19 73.4 °F 48.3 °F 29.99 in Calm     41% 0 in WeatherDisplay:10.37 W/m2
20:23 73.2 °F 48.1 °F 29.99 in Calm     41% 0 in WeatherDisplay:10.37 W/m2
20:29 73 °F 47.9 °F 29.99 in Calm     41% 0 in WeatherDisplay:10.37 W/m2
20:34 72.9 °F 47.8 °F 29.99 in Calm     41% 0 in WeatherDisplay:10.37 W/m2
20:39 72.9 °F 47.8 °F 29.99 in Calm     41% 0 in WeatherDisplay:10.37 W/m2
20:44 72.7 °F 47.6 °F 29.99 in Calm     41% 0 in WeatherDisplay:10.37 W/m2
Cohasset, California, USA
Compliments of Weather Underground - 2 mb